Time;durP1;ratioP1;P1;durP2;ratioP2;P2;SDS_P1;SDS_P2;PMS_P1;PMS_P2;Temp;Humidity;BMP_temperature;BMP_pressure;BME280_temperature;BME280_humidity;BME280_pressure;Samples;Min_cycle;Max_cycle;Signal;HPM_P1;HPM_P2
2021/10/01 00:02:19;;;;;;;24.58;14.32;;;;;;;;;;5081154;28;20044;-58
2021/10/01 00:04:45;;;;;;;23.25;11.68;;;;;;;;;;5074387;28;20128;-58
2021/10/01 00:07:12;;;;;;;21.42;11.63;;;;;;;;;;5091477;28;20072;-58
2021/10/01 00:09:39;;;;;;;24.00;12.38;;;;;;;;;;5090412;28;20036;-58
2021/10/01 00:12:06;;;;;;;24.83;11.85;;;;;;;;;;5079649;28;20054;-58
2021/10/01 00:14:34;;;;;;;28.70;13.13;;;;;;;;;;5079235;28;20065;-58
2021/10/01 00:17:01;;;;;;;28.67;14.13;;;;;;;;;;5079005;28;20052;-58
2021/10/01 00:19:28;;;;;;;24.60;12.25;;;;;;;;;;5076696;28;20044;-58
2021/10/01 00:21:54;;;;;;;28.85;11.93;;;;;;;;;;5076702;28;20088;-58
2021/10/01 00:24:21;;;;;;;22.00;13.52;;;;;;;;;;5078472;28;20416;-58
2021/10/01 00:26:48;;;;;;;32.38;12.80;;;;;;;;;;5078487;28;20053;-57
2021/10/01 00:29:14;;;;;;;24.33;12.00;;;;;;;;;;5078735;28;20109;-58
2021/10/01 00:31:40;;;;;;;26.58;12.23;;;;;;;;;;5077677;28;20058;-58
2021/10/01 00:34:07;;;;;;;23.15;11.77;;;;;;;;;;5075035;28;20058;-58
2021/10/01 00:36:34;;;;;;;22.27;12.13;;;;;;;;;;5072763;28;20079;-58
2021/10/01 00:39:01;;;;;;;26.35;12.13;;;;;;;;;;5077654;28;20056;-58
2021/10/01 00:41:28;;;;;;;22.83;12.38;;;;;;;;;;5077983;28;20377;-58
2021/10/01 00:43:55;;;;;;;20.05;11.57;;;;;;;;;;5078044;28;20055;-58
2021/10/01 00:46:21;;;;;;;25.85;11.82;;;;;;;;;;5073606;28;20117;-58
2021/10/01 00:48:48;;;;;;;23.42;12.27;;;;;;;;;;5074500;28;20044;-57
2021/10/01 00:51:14;;;;;;;22.15;12.13;;;;;;;;;;5086476;28;20060;-58
2021/10/01 00:53:42;;;;;;;34.47;12.80;;;;;;;;;;5084125;28;20055;-58
2021/10/01 00:56:08;;;;;;;27.08;12.95;;;;;;;;;;5086263;28;20047;-58
2021/10/01 00:58:35;;;;;;;33.33;15.07;;;;;;;;;;5075921;28;20083;-58
2021/10/01 01:01:10;;;;;;;38.95;18.48;;;;;;;;;;5073515;28;20044;-58
2021/10/01 01:03:39;;;;;;;39.85;15.30;;;;;;;;;;5075987;28;20048;-58
2021/10/01 01:06:11;;;;;;;28.70;13.43;;;;;;;;;;5078185;28;20549;-58
2021/10/01 01:08:43;;;;;;;28.88;13.20;;;;;;;;;;5080088;28;20039;-58
2021/10/01 01:11:20;;;;;;;33.53;14.77;;;;;;;;;;5084491;28;20067;-58
2021/10/01 01:13:51;;;;;;;23.85;12.68;;;;;;;;;;5085806;28;20059;-58
2021/10/01 01:16:22;;;;;;;28.88;13.68;;;;;;;;;;5088940;28;20052;-57
2021/10/01 01:18:52;;;;;;;27.95;14.13;;;;;;;;;;5074226;28;20049;-57
2021/10/01 01:21:24;;;;;;;24.65;13.20;;;;;;;;;;5085367;28;20505;-57
2021/10/01 01:24:10;;;;;;;28.33;14.00;;;;;;;;;;5078922;28;20377;-58
2021/10/01 01:27:12;;;;;;;26.75;13.55;;;;;;;;;;5077316;28;20053;-57
2021/10/01 01:29:45;;;;;;;28.48;13.55;;;;;;;;;;5067760;28;20780;-58
2021/10/01 01:32:16;;;;;;;22.13;12.07;;;;;;;;;;5084637;28;20075;-57
2021/10/01 01:34:50;;;;;;;25.25;11.55;;;;;;;;;;5076980;28;20552;-58
2021/10/01 01:37:25;;;;;;;29.25;12.27;;;;;;;;;;5074193;28;20052;-58
2021/10/01 01:39:52;;;;;;;20.35;11.02;;;;;;;;;;5074226;28;20051;-58
2021/10/01 01:42:19;;;;;;;20.13;10.85;;;;;;;;;;5076265;28;20041;-58
2021/10/01 01:44:47;;;;;;;20.77;10.95;;;;;;;;;;5077045;28;20049;-58
2021/10/01 01:47:15;;;;;;;22.50;10.57;;;;;;;;;;5074102;28;20057;-58
2021/10/01 01:49:43;;;;;;;23.77;11.45;;;;;;;;;;5072669;28;20047;-58
2021/10/01 01:52:09;;;;;;;23.02;11.20;;;;;;;;;;5088595;28;20067;-57
2021/10/01 01:54:36;;;;;;;24.75;11.60;;;;;;;;;;5087316;28;20071;-58
2021/10/01 01:57:03;;;;;;;19.88;10.52;;;;;;;;;;5083840;28;20138;-58
2021/10/01 01:59:31;;;;;;;18.88;9.82;;;;;;;;;;5074099;28;20046;-58
2021/10/01 02:01:58;;;;;;;20.25;9.93;;;;;;;;;;5083660;28;20083;-58
2021/10/01 02:04:26;;;;;;;21.02;10.60;;;;;;;;;;5088196;28;20049;-58
2021/10/01 02:06:53;;;;;;;25.30;10.73;;;;;;;;;;5073640;28;20049;-58
2021/10/01 02:09:20;;;;;;;18.08;10.30;;;;;;;;;;5073991;28;20049;-58
2021/10/01 02:11:47;;;;;;;18.60;9.43;;;;;;;;;;5076707;28;20040;-58
2021/10/01 02:14:17;;;;;;;19.00;8.85;;;;;;;;;;5075347;28;20075;-57
2021/10/01 02:16:44;;;;;;;19.83;10.52;;;;;;;;;;5088090;28;20495;-57
2021/10/01 02:19:12;;;;;;;17.40;8.73;;;;;;;;;;5072978;28;20078;-58
2021/10/01 02:21:38;;;;;;;15.70;8.93;;;;;;;;;;5086813;28;20504;-58
2021/10/01 02:24:05;;;;;;;16.42;9.35;;;;;;;;;;5083324;28;20058;-58
2021/10/01 02:26:38;;;;;;;19.70;9.68;;;;;;;;;;5081023;28;20518;-58
2021/10/01 02:29:15;;;;;;;18.73;9.32;;;;;;;;;;5077138;28;20070;-58
2021/10/01 02:31:54;;;;;;;22.77;10.60;;;;;;;;;;5073394;28;20121;-58
2021/10/01 02:34:24;;;;;;;19.65;9.70;;;;;;;;;;5072740;28;20048;-57
2021/10/01 02:36:51;;;;;;;17.60;9.07;;;;;;;;;;5073068;28;20053;-57
2021/10/01 02:39:17;;;;;;;18.08;8.95;;;;;;;;;;5076106;28;20491;-58
2021/10/01 02:41:43;;;;;;;19.38;8.68;;;;;;;;;;5076764;28;20052;-57
2021/10/01 02:44:10;;;;;;;17.55;9.30;;;;;;;;;;5074136;28;20083;-58
2021/10/01 02:46:37;;;;;;;16.75;9.00;;;;;;;;;;5087974;28;20063;-58
2021/10/01 02:49:04;;;;;;;15.90;8.48;;;;;;;;;;5073404;28;20058;-57
2021/10/01 02:51:32;;;;;;;17.10;8.80;;;;;;;;;;5075180;28;20133;-58
2021/10/01 02:54:09;;;;;;;20.00;10.18;;;;;;;;;;5076253;28;20040;-58
2021/10/01 02:56:40;;;;;;;20.67;9.38;;;;;;;;;;5076368;28;20122;-58
2021/10/01 02:59:08;;;;;;;18.13;10.27;;;;;;;;;;5076348;28;20408;-58
2021/10/01 03:01:37;;;;;;;15.63;8.90;;;;;;;;;;5074654;28;20537;-57
2021/10/01 03:04:06;;;;;;;19.92;9.52;;;;;;;;;;5080769;28;24085;-57
2021/10/01 03:06:34;;;;;;;25.67;10.65;;;;;;;;;;5085392;28;20044;-57
2021/10/01 03:09:02;;;;;;;21.67;9.75;;;;;;;;;;5085886;28;20490;-58
2021/10/01 03:11:29;;;;;;;18.15;9.25;;;;;;;;;;5087942;28;20044;-58
2021/10/01 03:13:55;;;;;;;20.83;9.55;;;;;;;;;;5089827;28;20048;-58
2021/10/01 03:16:22;;;;;;;21.08;8.98;;;;;;;;;;5075210;28;20393;-58
2021/10/01 03:18:51;;;;;;;16.23;8.70;;;;;;;;;;5075893;28;20082;-58
2021/10/01 03:21:18;;;;;;;16.95;8.98;;;;;;;;;;5080841;28;20906;-58
2021/10/01 03:23:46;;;;;;;17.45;9.30;;;;;;;;;;5084484;28;20541;-58
2021/10/01 03:26:13;;;;;;;20.15;9.20;;;;;;;;;;5081265;28;20079;-58
2021/10/01 03:28:41;;;;;;;21.60;8.10;;;;;;;;;;5074331;28;20041;-58
2021/10/01 03:31:07;;;;;;;19.50;10.00;;;;;;;;;;5090624;28;20400;-58
2021/10/01 03:33:38;;;;;;;19.33;10.23;;;;;;;;;;5085673;28;20128;-57
2021/10/01 03:36:05;;;;;;;14.85;8.35;;;;;;;;;;5082622;28;20079;-57
2021/10/01 03:38:32;;;;;;;25.50;8.57;;;;;;;;;;5080182;28;20479;-58
2021/10/01 03:41:02;;;;;;;19.98;8.00;;;;;;;;;;5088550;28;20507;-58
2021/10/01 03:43:29;;;;;;;21.85;8.65;;;;;;;;;;5092729;28;20177;-57
2021/10/01 03:45:57;;;;;;;16.95;9.23;;;;;;;;;;5092453;28;20055;-58
2021/10/01 03:48:24;;;;;;;16.58;9.07;;;;;;;;;;5095060;28;20068;-57
2021/10/01 03:50:59;;;;;;;18.40;9.27;;;;;;;;;;5076001;28;20056;-58
2021/10/01 03:53:25;;;;;;;21.15;9.02;;;;;;;;;;5080028;28;20083;-57
2021/10/01 03:55:53;;;;;;;21.88;8.65;;;;;;;;;;5086601;28;20048;-57
2021/10/01 03:58:19;;;;;;;18.00;8.32;;;;;;;;;;5091328;28;20040;-58
2021/10/01 04:00:47;;;;;;;17.92;8.82;;;;;;;;;;5076564;28;20064;-58
2021/10/01 04:03:15;;;;;;;17.85;7.90;;;;;;;;;;5088616;28;20551;-57
2021/10/01 04:05:48;;;;;;;21.70;8.60;;;;;;;;;;5087394;28;20220;-58
2021/10/01 04:08:14;;;;;;;17.42;8.60;;;;;;;;;;5081761;28;20052;-58
2021/10/01 04:10:44;;;;;;;15.45;8.13;;;;;;;;;;5085640;28;20453;-57
2021/10/01 04:13:10;;;;;;;17.55;8.43;;;;;;;;;;5089958;28;20101;-57
2021/10/01 04:15:45;;;;;;;;;;;;;;;;;;5089532;28;20431;-57
2021/10/01 04:18:12;;;;;;;15.05;7.55;;;;;;;;;;5088575;28;20009;-57
2021/10/01 04:20:41;;;;;;;13.38;7.32;;;;;;;;;;5089352;28;20044;-58
2021/10/01 04:23:08;;;;;;;13.30;7.78;;;;;;;;;;5087526;28;20044;-57
2021/10/01 04:25:53;;;;;;;21.98;8.57;;;;;;;;;;5088749;28;20059;-58
2021/10/01 04:28:21;;;;;;;15.52;8.77;;;;;;;;;;5094822;28;20079;-57
2021/10/01 04:30:53;;;;;;;15.52;8.05;;;;;;;;;;5088908;28;20036;-57
2021/10/01 04:33:22;;;;;;;15.45;8.05;;;;;;;;;;5086086;28;20075;-58
2021/10/01 04:35:50;;;;;;;17.10;8.35;;;;;;;;;;5082147;28;20074;-58
2021/10/01 04:38:18;;;;;;;15.93;8.38;;;;;;;;;;5094648;28;20045;-57
2021/10/01 04:40:47;;;;;;;15.95;7.80;;;;;;;;;;5117026;27;20455;-56
2021/10/01 04:43:14;;;;;;;27.13;9.15;;;;;;;;;;5080847;28;20047;-57
2021/10/01 04:46:12;;;;;;;16.08;8.00;;;;;;;;;;5044267;28;20057;-57
2021/10/01 04:48:40;;;;;;;15.30;7.10;;;;;;;;;;5033011;28;20593;-58
2021/10/01 04:51:09;;;;;;;15.05;8.57;;;;;;;;;;5025183;28;20045;-58
2021/10/01 04:53:36;;;;;;;18.10;9.50;;;;;;;;;;5021360;28;20069;-58
2021/10/01 04:56:02;;;;;;;18.10;9.70;;;;;;;;;;5038517;28;20055;-57
2021/10/01 04:58:29;;;;;;;18.33;10.02;;;;;;;;;;5049061;28;20049;-57
2021/10/01 05:01:22;;;;;;;18.67;9.95;;;;;;;;;;4990348;28;20077;-57
2021/10/01 05:04:09;;;;;;;13.77;6.90;;;;;;;;;;4982810;28;20415;-57
2021/10/01 05:06:38;;;;;;;18.30;9.40;;;;;;;;;;4992626;28;20057;-56
2021/10/01 05:09:24;;;;;;;24.77;9.68;;;;;;;;;;4982684;28;20066;-57
2021/10/01 05:12:09;;;;;;;15.68;7.85;;;;;;;;;;4996544;28;20559;-57
2021/10/01 05:15:14;;;;;;;23.67;10.13;;;;;;;;;;4999101;28;20100;-58
2021/10/01 05:17:59;;;;;;;;;;;;;;;;;;4997315;28;20077;-57
2021/10/01 05:20:51;;;;;;;19.00;9.93;;;;;;;;;;4964945;28;20009;-57
2021/10/01 05:23:41;;;;;;;22.65;10.65;;;;;;;;;;4968225;28;20096;-58
2021/10/01 05:26:07;;;;;;;25.55;11.38;;;;;;;;;;4986196;28;20138;-57
2021/10/01 05:28:34;;;;;;;21.30;9.57;;;;;;;;;;4952490;28;20578;-57
2021/10/01 05:31:00;;;;;;;23.52;11.85;;;;;;;;;;4970841;28;20136;-58
2021/10/01 05:33:27;;;;;;;21.42;10.63;;;;;;;;;;4971718;28;20504;-57
2021/10/01 05:35:53;;;;;;;22.25;11.93;;;;;;;;;;4987064;28;20117;-58
2021/10/01 05:38:20;;;;;;;22.92;12.05;;;;;;;;;;5015785;28;20080;-57
2021/10/01 05:40:46;;;;;;;23.20;11.77;;;;;;;;;;5039044;28;20112;-58
2021/10/01 05:43:13;;;;;;;22.52;12.63;;;;;;;;;;5043626;28;20045;-58
2021/10/01 05:45:40;;;;;;;20.90;11.75;;;;;;;;;;5030055;28;20058;-57
2021/10/01 05:48:27;;;;;;;23.45;12.07;;;;;;;;;;5028494;28;20053;-58
2021/10/01 05:51:13;;;;;;;22.45;12.27;;;;;;;;;;5027132;28;20531;-57
2021/10/01 05:54:13;;;;;;;24.27;11.93;;;;;;;;;;5024813;28;20053;-57
2021/10/01 05:56:59;;;;;;;24.90;11.65;;;;;;;;;;5030387;28;20647;-58
2021/10/01 05:59:46;;;;;;;31.38;12.50;;;;;;;;;;5077596;28;20052;-57
2021/10/01 06:02:15;;;;;;;29.88;12.65;;;;;;;;;;5070516;28;20115;-57
2021/10/01 06:04:42;;;;;;;38.53;13.95;;;;;;;;;;5082527;28;20056;-58
2021/10/01 06:07:09;;;;;;;27.10;13.18;;;;;;;;;;5086453;28;20048;-58
2021/10/01 06:09:36;;;;;;;27.95;13.65;;;;;;;;;;5072955;28;20083;-59
2021/10/01 06:12:02;;;;;;;24.67;12.15;;;;;;;;;;5076847;28;20056;-58
2021/10/01 06:14:29;;;;;;;23.13;14.75;;;;;;;;;;5070768;28;20103;-57
2021/10/01 06:16:55;;;;;;;27.88;13.68;;;;;;;;;;5076038;28;20079;-59
2021/10/01 06:19:22;;;;;;;35.67;14.15;;;;;;;;;;5079160;28;20068;-58
2021/10/01 06:21:48;;;;;;;25.33;12.77;;;;;;;;;;5069941;28;20453;-58
2021/10/01 06:24:15;;;;;;;27.90;12.13;;;;;;;;;;5071171;28;20052;-57
2021/10/01 06:26:41;;;;;;;28.63;13.23;;;;;;;;;;5070566;28;20047;-58
2021/10/01 06:29:07;;;;;;;26.35;13.88;;;;;;;;;;5072289;28;20067;-59
2021/10/01 06:31:34;;;;;;;21.33;12.45;;;;;;;;;;5087173;28;20078;-59
2021/10/01 06:34:00;;;;;;;24.33;12.48;;;;;;;;;;5083988;28;20054;-57
2021/10/01 06:36:27;;;;;;;23.50;12.50;;;;;;;;;;5085996;28;20070;-58
2021/10/01 06:38:53;;;;;;;25.73;12.95;;;;;;;;;;5088344;28;20055;-56
2021/10/01 06:41:20;;;;;;;25.15;12.65;;;;;;;;;;5085614;28;20043;-58
2021/10/01 06:43:46;;;;;;;25.08;12.10;;;;;;;;;;5087168;28;20048;-58
2021/10/01 06:46:31;;;;;;;32.35;12.60;;;;;;;;;;5090300;28;20122;-58
2021/10/01 08:19:46;;;;;;;15.00;7.90;;;;;;;;;;4970735;28;20050;-58
2021/10/01 08:22:13;;;;;;;13.60;8.38;;;;;;;;;;4971052;28;20409;-59
2021/10/01 08:24:40;;;;;;;13.23;8.05;;;;;;;;;;4970620;28;20132;-59
2021/10/01 08:27:07;;;;;;;9.77;6.18;;;;;;;;;;4970894;28;20058;-59
2021/10/01 08:29:34;;;;;;;9.05;4.85;;;;;;;;;;4971386;28;20066;-58
2021/10/01 08:32:01;;;;;;;9.25;5.00;;;;;;;;;;4975118;28;20125;-58
2021/10/01 08:34:29;;;;;;;10.05;5.18;;;;;;;;;;4968154;28;20062;-58
2021/10/01 08:36:55;;;;;;;6.38;4.85;;;;;;;;;;4971634;28;20495;-58
2021/10/01 08:39:22;;;;;;;12.13;4.90;;;;;;;;;;4969633;28;20058;-58
2021/10/01 08:41:49;;;;;;;8.20;4.57;;;;;;;;;;4950084;28;20075;-58
2021/10/01 08:44:16;;;;;;;9.10;3.80;;;;;;;;;;5008970;28;20045;-58
2021/10/01 08:46:44;;;;;;;11.65;4.47;;;;;;;;;;5010946;28;20141;-58
2021/10/01 08:49:10;;;;;;;9.57;4.82;;;;;;;;;;5058110;28;20079;-59
2021/10/01 08:51:37;;;;;;;10.50;4.90;;;;;;;;;;5088666;28;20040;-58
2021/10/01 08:54:04;;;;;;;6.65;4.03;;;;;;;;;;5078718;28;20049;-59
2021/10/01 08:56:30;;;;;;;9.70;4.50;;;;;;;;;;5078203;28;20079;-58
2021/10/01 08:58:57;;;;;;;7.95;4.20;;;;;;;;;;5078218;28;20051;-58
2021/10/01 09:01:24;;;;;;;6.55;4.05;;;;;;;;;;5107788;27;20072;-60
2021/10/01 09:03:50;;;;;;;7.32;4.35;;;;;;;;;;5079087;28;20056;-61
2021/10/01 09:06:18;;;;;;;6.60;4.35;;;;;;;;;;5089705;28;20451;-60
2021/10/01 09:08:53;;;;;;;6.80;3.90;;;;;;;;;;5088572;28;20044;-60
2021/10/01 09:11:25;;;;;;;7.40;4.75;;;;;;;;;;5084142;28;20068;-59
2021/10/01 09:13:52;;;;;;;7.20;4.85;;;;;;;;;;5081555;28;20131;-61
2021/10/01 09:16:18;;;;;;;10.68;4.85;;;;;;;;;;5091061;28;20044;-60
2021/10/01 09:18:46;;;;;;;8.63;3.80;;;;;;;;;;5088566;28;20037;-60
2021/10/01 09:21:14;;;;;;;8.45;4.30;;;;;;;;;;5084571;28;20044;-61
2021/10/01 09:23:46;;;;;;;10.30;4.00;;;;;;;;;;5080756;28;20056;-61
2021/10/01 09:26:14;;;;;;;6.82;3.60;;;;;;;;;;5083934;28;20059;-58
2021/10/01 09:29:00;;;;;;;7.47;3.97;;;;;;;;;;5086421;28;20408;-58
2021/10/01 09:31:30;;;;;;;9.15;4.47;;;;;;;;;;5084429;28;20052;-59
2021/10/01 09:33:56;;;;;;;10.57;4.40;;;;;;;;;;5089104;28;20138;-58
2021/10/01 09:36:23;;;;;;;8.70;3.75;;;;;;;;;;5085726;28;20936;-59
2021/10/01 09:38:49;;;;;;;5.55;3.78;;;;;;;;;;5083766;28;20119;-60
2021/10/01 09:41:17;;;;;;;9.15;4.97;;;;;;;;;;5083146;28;20040;-61
2021/10/01 09:43:43;;;;;;;16.58;4.75;;;;;;;;;;5085914;28;20047;-61
2021/10/01 09:46:12;;;;;;;9.30;4.93;;;;;;;;;;5087933;28;20052;-61
2021/10/01 09:48:39;;;;;;;9.20;5.28;;;;;;;;;;5083995;28;20048;-61
2021/10/01 09:51:14;;;;;;;8.07;5.45;;;;;;;;;;5081403;28;20040;-61
2021/10/01 09:53:51;;;;;;;11.80;5.07;;;;;;;;;;5076739;28;20077;-60
2021/10/01 09:56:23;;;;;;;9.18;4.28;;;;;;;;;;5081908;28;20044;-60
2021/10/01 09:59:04;;;;;;;10.95;4.63;;;;;;;;;;5077671;28;21071;-60
2021/10/01 10:01:31;;;;;;;8.45;4.15;;;;;;;;;;5086165;28;20040;-60
2021/10/01 10:03:57;;;;;;;6.13;3.58;;;;;;;;;;5083169;28;20079;-60
2021/10/01 10:06:24;;;;;;;6.57;4.35;;;;;;;;;;5083238;28;20101;-60
2021/10/01 10:08:50;;;;;;;8.32;4.70;;;;;;;;;;5078449;28;20051;-60
2021/10/01 10:11:19;;;;;;;10.43;4.40;;;;;;;;;;5074527;28;20063;-60
2021/10/01 10:13:49;;;;;;;8.98;3.97;;;;;;;;;;5087437;28;20048;-60
2021/10/01 10:16:20;;;;;;;5.63;2.90;;;;;;;;;;5071645;28;20032;-60
2021/10/01 10:18:48;;;;;;;5.65;2.35;;;;;;;;;;5085544;28;20109;-61
2021/10/01 10:21:15;;;;;;;4.15;2.38;;;;;;;;;;5075223;28;20079;-60
2021/10/01 10:23:41;;;;;;;6.47;3.50;;;;;;;;;;5078861;28;20419;-60
2021/10/01 10:26:08;;;;;;;5.18;3.50;;;;;;;;;;5082240;28;20083;-61
2021/10/01 10:28:35;;;;;;;7.22;3.10;;;;;;;;;;5087592;28;20135;-60
2021/10/01 10:31:01;;;;;;;7.25;2.92;;;;;;;;;;5075567;28;20055;-60
2021/10/01 10:33:40;;;;;;;8.32;3.03;;;;;;;;;;5075841;28;20048;-60
2021/10/01 10:36:25;;;;;;;6.72;3.10;;;;;;;;;;5086212;28;20075;-60
2021/10/01 10:38:51;;;;;;;7.38;4.13;;;;;;;;;;5077870;28;20129;-61
2021/10/01 10:41:24;;;;;;;7.45;4.05;;;;;;;;;;5076505;28;20200;-61
2021/10/01 10:43:51;;;;;;;6.82;3.92;;;;;;;;;;5076865;28;20544;-61
2021/10/01 10:46:35;;;;;;;6.18;4.45;;;;;;;;;;5072059;28;20491;-60
2021/10/01 10:49:02;;;;;;;;;;;;;;;;;;5073949;28;20131;-60
2021/10/01 10:51:47;;;;;;;11.60;4.18;;;;;;;;;;5078955;28;19947;-60
2021/10/01 10:54:14;;;;;;;8.00;4.28;;;;;;;;;;5088091;28;20044;-59
2021/10/01 10:56:40;;;;;;;6.43;4.22;;;;;;;;;;5089262;28;20052;-60
2021/10/01 10:59:26;;;;;;;7.55;4.28;;;;;;;;;;5088233;28;20055;-59
2021/10/01 11:02:13;;;;;;;8.07;4.63;;;;;;;;;;5084755;28;20111;-60
2021/10/01 11:04:39;;;;;;;10.23;5.50;;;;;;;;;;5087361;28;20402;-61
2021/10/01 11:07:06;;;;;;;10.80;5.55;;;;;;;;;;5072938;28;20076;-61
2021/10/01 11:09:34;;;;;;;8.27;5.32;;;;;;;;;;5087601;28;20519;-60
2021/10/01 11:12:01;;;;;;;11.00;5.07;;;;;;;;;;5077216;28;20048;-60
2021/10/01 11:14:28;;;;;;;8.70;4.75;;;;;;;;;;5075811;28;20056;-60
2021/10/01 11:16:55;;;;;;;9.15;4.32;;;;;;;;;;5075819;28;20040;-59
2021/10/01 11:19:36;;;;;;;9.23;4.85;;;;;;;;;;5071294;28;20411;-61
2021/10/01 11:22:38;;;;;;;4.90;3.63;;;;;;;;;;5072742;28;20067;-60
2021/10/01 11:25:13;;;;;;;7.97;4.78;;;;;;;;;;5049529;28;20053;-60
2021/10/01 11:27:59;;;;;;;9.68;5.60;;;;;;;;;;5052148;28;20551;-60
2021/10/01 11:30:26;;;;;;;8.73;5.72;;;;;;;;;;5051290;28;20581;-60
2021/10/01 11:32:52;;;;;;;9.23;5.60;;;;;;;;;;5046662;28;20084;-60
2021/10/01 11:35:20;;;;;;;9.25;5.57;;;;;;;;;;5046442;28;20063;-60
2021/10/01 11:37:51;;;;;;;9.43;5.78;;;;;;;;;;5046259;28;20432;-60
2021/10/01 11:40:17;;;;;;;8.45;5.10;;;;;;;;;;5030655;28;20064;-60
2021/10/01 11:42:44;;;;;;;9.98;5.25;;;;;;;;;;5050151;28;20049;-60
2021/10/01 11:45:13;;;;;;;8.27;4.88;;;;;;;;;;5046496;28;20055;-60
2021/10/01 11:47:40;;;;;;;8.32;4.10;;;;;;;;;;5048769;28;20504;-60
2021/10/01 11:50:07;;;;;;;9.27;4.43;;;;;;;;;;5048193;28;20067;-60
2021/10/01 11:52:41;;;;;;;6.35;3.67;;;;;;;;;;5048722;28;20041;-60
2021/10/01 11:55:08;;;;;;;8.48;3.58;;;;;;;;;;5049669;28;20080;-60
2021/10/01 11:57:35;;;;;;;6.18;4.50;;;;;;;;;;5051246;28;20069;-61
2021/10/01 12:00:04;;;;;;;8.82;4.72;;;;;;;;;;5076596;28;20135;-61
2021/10/01 12:02:43;;;;;;;10.38;4.88;;;;;;;;;;5079292;28;20056;-61
2021/10/01 12:05:21;;;;;;;9.77;5.60;;;;;;;;;;5079256;28;20043;-60
2021/10/01 12:07:49;;;;;;;11.85;3.92;;;;;;;;;;5079080;28;20062;-61
2021/10/01 12:10:15;;;;;;;5.68;3.63;;;;;;;;;;5074683;28;20040;-60
2021/10/01 12:13:01;;;;;;;5.28;3.58;;;;;;;;;;5078615;28;20040;-60
2021/10/01 12:15:37;;;;;;;20.10;4.07;;;;;;;;;;5078109;28;20520;-60
2021/10/01 12:18:08;;;;;;;6.15;3.58;;;;;;;;;;5086334;28;20109;-60
2021/10/01 12:20:47;;;;;;;8.07;3.13;;;;;;;;;;5089937;28;20055;-60
2021/10/01 12:23:26;;;;;;;8.73;3.80;;;;;;;;;;5086899;28;20147;-60
2021/10/01 12:25:53;;;;;;;7.68;3.47;;;;;;;;;;5089227;28;20507;-60
2021/10/01 12:28:20;;;;;;;5.22;3.70;;;;;;;;;;5074165;28;20040;-60
2021/10/01 12:30:58;;;;;;;6.78;3.33;;;;;;;;;;5077393;28;20055;-58
2021/10/01 12:33:25;;;;;;;7.25;3.75;;;;;;;;;;5089340;28;20080;-60
2021/10/01 12:35:51;;;;;;;7.07;3.15;;;;;;;;;;5080909;28;20051;-60
2021/10/01 12:38:17;;;;;;;9.85;4.22;;;;;;;;;;5077213;28;20064;-60
2021/10/01 12:40:44;;;;;;;6.47;3.42;;;;;;;;;;5080001;28;20067;-60
2021/10/01 12:43:10;;;;;;;6.85;3.15;;;;;;;;;;5074364;28;20048;-60
2021/10/01 12:45:39;;;;;;;6.15;3.20;;;;;;;;;;5077933;28;20045;-60
2021/10/01 12:48:16;;;;;;;12.10;3.55;;;;;;;;;;5078066;28;20049;-60
2021/10/01 12:50:42;;;;;;;6.60;3.17;;;;;;;;;;5078554;28;20048;-60
2021/10/01 12:53:11;;;;;;;5.45;2.63;;;;;;;;;;5078203;28;20088;-60
2021/10/01 12:55:38;;;;;;;4.05;2.35;;;;;;;;;;5075184;28;20118;-60
2021/10/01 12:58:04;;;;;;;4.72;2.40;;;;;;;;;;5089874;28;20132;-60
2021/10/01 13:00:33;;;;;;;5.15;2.15;;;;;;;;;;5076116;28;20068;-60
2021/10/01 13:03:03;;;;;;;6.30;2.50;;;;;;;;;;5077173;28;20083;-60
2021/10/01 13:05:32;;;;;;;4.55;2.08;;;;;;;;;;5077242;28;20040;-59
2021/10/01 13:07:58;;;;;;;3.05;2.10;;;;;;;;;;5077812;28;20055;-61
2021/10/01 13:10:25;;;;;;;5.32;2.20;;;;;;;;;;5074122;28;20037;-60
2021/10/01 13:13:01;;;;;;;7.45;2.13;;;;;;;;;;5075364;28;20484;-60
2021/10/01 13:15:46;;;;;;;3.67;1.70;;;;;;;;;;5077595;28;20079;-61
2021/10/01 13:18:18;;;;;;;2.97;1.60;;;;;;;;;;5087143;28;20123;-61
2021/10/01 13:20:47;;;;;;;5.63;1.33;;;;;;;;;;5081368;28;20063;-61
2021/10/01 13:23:15;;;;;;;4.05;1.60;;;;;;;;;;5077326;28;20067;-61
2021/10/01 13:25:47;;;;;;;4.20;2.00;;;;;;;;;;5076383;28;20047;-60
2021/10/01 13:28:13;;;;;;;5.60;1.70;;;;;;;;;;5073467;28;20060;-61
2021/10/01 13:30:40;;;;;;;3.65;2.22;;;;;;;;;;5077063;28;20075;-61
2021/10/01 13:33:07;;;;;;;5.90;2.47;;;;;;;;;;5076851;28;20063;-61
2021/10/01 13:35:33;;;;;;;5.32;3.08;;;;;;;;;;5080253;28;20044;-60
2021/10/01 13:38:00;;;;;;;3.35;1.92;;;;;;;;;;5087554;28;20058;-61
2021/10/01 13:40:26;;;;;;;3.17;2.10;;;;;;;;;;5073371;28;20119;-61
2021/10/01 13:42:53;;;;;;;6.22;2.00;;;;;;;;;;5074922;28;20127;-60
2021/10/01 13:45:19;;;;;;;5.25;2.30;;;;;;;;;;5087149;28;20039;-60
2021/10/01 13:47:45;;;;;;;3.15;1.85;;;;;;;;;;5080805;28;20514;-60
2021/10/01 13:50:13;;;;;;;4.85;2.17;;;;;;;;;;5077231;28;20068;-60
2021/10/01 13:52:39;;;;;;;4.95;2.40;;;;;;;;;;5088425;28;20128;-60
2021/10/01 13:55:07;;;;;;;4.82;2.00;;;;;;;;;;5073909;28;20125;-60
2021/10/01 13:57:34;;;;;;;7.65;2.63;;;;;;;;;;5076657;28;20045;-61
2021/10/01 14:00:00;;;;;;;4.90;2.00;;;;;;;;;;5076919;28;20554;-60
2021/10/01 14:02:26;;;;;;;7.30;2.03;;;;;;;;;;5076953;28;20441;-60
2021/10/01 14:04:52;;;;;;;3.35;2.55;;;;;;;;;;5077361;28;20095;-60
2021/10/01 14:07:19;;;;;;;8.05;2.30;;;;;;;;;;5073363;28;20048;-60
2021/10/01 14:09:45;;;;;;;4.53;2.17;;;;;;;;;;5092282;28;20415;-59
2021/10/01 14:12:13;;;;;;;5.90;2.58;;;;;;;;;;5083325;28;20101;-60
2021/10/01 14:14:39;;;;;;;5.00;2.40;;;;;;;;;;5081658;28;20044;-60
2021/10/01 14:17:06;;;;;;;6.32;2.67;;;;;;;;;;5077223;28;20457;-60
2021/10/01 14:19:33;;;;;;;4.38;2.47;;;;;;;;;;5075555;28;20567;-59
2021/10/01 14:21:59;;;;;;;5.38;2.80;;;;;;;;;;5082594;28;20047;-59
2021/10/01 14:24:25;;;;;;;5.38;3.03;;;;;;;;;;5090035;28;20055;-59
2021/10/01 14:26:52;;;;;;;6.80;3.20;;;;;;;;;;5082278;28;20519;-59
2021/10/01 14:29:18;;;;;;;4.88;3.00;;;;;;;;;;5083804;28;20115;-59
2021/10/01 14:31:44;;;;;;;5.20;3.60;;;;;;;;;;5076352;28;20116;-58
2021/10/01 14:34:11;;;;;;;7.30;3.67;;;;;;;;;;5073844;28;20067;-60
2021/10/01 14:36:37;;;;;;;4.95;3.30;;;;;;;;;;5076568;28;20059;-60
2021/10/01 14:39:03;;;;;;;5.97;3.60;;;;;;;;;;5076834;28;20059;-59
2021/10/01 14:41:30;;;;;;;8.23;5.40;;;;;;;;;;5078133;28;20051;-60
2021/10/01 14:43:56;;;;;;;13.70;4.18;;;;;;;;;;5076871;28;20040;-60
2021/10/01 14:46:23;;;;;;;9.68;4.28;;;;;;;;;;5073245;28;20040;-59
2021/10/01 14:48:51;;;;;;;10.48;4.65;;;;;;;;;;5083945;28;20077;-59
2021/10/01 14:51:17;;;;;;;8.80;4.60;;;;;;;;;;5077292;28;20134;-59
2021/10/01 14:53:43;;;;;;;6.45;4.40;;;;;;;;;;5081578;28;20170;-59
2021/10/01 14:56:13;;;;;;;9.60;5.60;;;;;;;;;;5085002;28;20044;-58
2021/10/01 14:58:39;;;;;;;8.88;6.18;;;;;;;;;;5077224;28;20050;-58
2021/10/01 15:01:05;;;;;;;12.38;5.75;;;;;;;;;;5077056;28;20128;-58
2021/10/01 15:03:32;;;;;;;12.75;5.80;;;;;;;;;;5080236;28;20102;-59
2021/10/01 15:05:58;;;;;;;10.10;6.47;;;;;;;;;;5082390;28;20041;-59
2021/10/01 15:08:24;;;;;;;10.75;5.82;;;;;;;;;;5083458;28;20107;-57
2021/10/01 15:10:51;;;;;;;9.18;6.25;;;;;;;;;;5079433;28;20463;-59
2021/10/01 15:13:18;;;;;;;11.63;6.68;;;;;;;;;;5075769;28;20236;-58
2021/10/01 15:15:44;;;;;;;9.32;6.10;;;;;;;;;;5079166;28;20041;-57
2021/10/01 15:18:12;;;;;;;14.82;7.45;;;;;;;;;;5074607;28;20059;-57
2021/10/01 15:20:38;;;;;;;9.40;6.75;;;;;;;;;;5073157;28;20043;-58
2021/10/01 15:23:05;;;;;;;11.10;7.35;;;;;;;;;;5076781;28;20044;-58
2021/10/01 15:25:32;;;;;;;12.98;7.32;;;;;;;;;;5090944;28;20048;-59
2021/10/01 15:27:58;;;;;;;19.33;8.93;;;;;;;;;;5077743;28;20044;-58
2021/10/01 15:30:24;;;;;;;14.80;8.85;;;;;;;;;;5079275;28;20093;-57
2021/10/01 15:32:51;;;;;;;13.23;8.30;;;;;;;;;;5085976;28;20040;-58
2021/10/01 15:35:19;;;;;;;17.17;8.80;;;;;;;;;;5087665;28;20058;-58
2021/10/01 15:37:46;;;;;;;15.30;9.68;;;;;;;;;;5079296;28;20044;-58
2021/10/01 15:40:13;;;;;;;16.85;9.40;;;;;;;;;;5075391;28;20056;-57
2021/10/01 15:42:40;;;;;;;16.67;9.32;;;;;;;;;;5079499;28;20052;-58
2021/10/01 15:45:07;;;;;;;15.38;9.07;;;;;;;;;;5079619;28;20074;-58
2021/10/01 15:47:34;;;;;;;14.40;9.23;;;;;;;;;;5079836;28;20060;-57
2021/10/01 15:50:00;;;;;;;16.88;9.18;;;;;;;;;;5079793;28;20055;-58
2021/10/01 15:52:27;;;;;;;18.55;11.73;;;;;;;;;;5076661;28;20083;-58
2021/10/01 15:54:53;;;;;;;25.52;11.88;;;;;;;;;;5077137;28;20518;-56
2021/10/01 15:57:20;;;;;;;15.98;10.93;;;;;;;;;;5079922;28;20138;-58
2021/10/01 15:59:46;;;;;;;19.80;11.90;;;;;;;;;;5079371;28;20548;-59
2021/10/01 16:02:13;;;;;;;21.80;11.95;;;;;;;;;;5079648;28;20048;-58
2021/10/01 16:04:39;;;;;;;25.50;13.07;;;;;;;;;;5083249;28;20079;-58
2021/10/01 16:07:05;;;;;;;25.63;13.73;;;;;;;;;;5090948;28;20082;-57
2021/10/01 16:09:32;;;;;;;26.85;14.95;;;;;;;;;;5078421;28;20044;-57
2021/10/01 16:11:58;;;;;;;31.27;15.27;;;;;;;;;;5086037;28;20503;-58
2021/10/01 16:14:25;;;;;;;26.83;14.20;;;;;;;;;;5085526;28;20058;-58
2021/10/01 16:16:52;;;;;;;25.23;13.98;;;;;;;;;;5079257;28;20047;-57
2021/10/01 16:19:18;;;;;;;28.85;14.80;;;;;;;;;;5075071;28;20044;-59